Time;durP1;ratioP1;P1;durP2;ratioP2;P2;SDS_P1;SDS_P2;PMS_P1;PMS_P2;Temp;Humidity;BMP_temperature;BMP_pressure;BME280_temperature;BME280_humidity;BME280_pressure;Samples;Min_cycle;Max_cycle;Signal;HPM_P1;HPM_P2
2023/04/07 00:02:23;;;;;;;19.20;8.45;;;;;;;4.61;73.90;100798.31;5030535;28;24134;-74
2023/04/07 00:04:48;;;;;;;17.40;8.27;;;;;;;4.66;73.84;100791.94;5027219;28;20546;-73
2023/04/07 00:07:13;;;;;;;12.00;7.45;;;;;;;4.81;72.80;100790.09;5021669;28;20514;-73
2023/04/07 00:09:39;;;;;;;13.82;7.40;;;;;;;4.92;72.00;100799.72;5022661;28;20112;-72
2023/04/07 00:12:04;;;;;;;15.05;7.65;;;;;;;4.87;72.18;100792.28;5032530;28;20049;-73
2023/04/07 00:14:29;;;;;;;17.88;9.18;;;;;;;4.64;73.67;100783.47;5020537;28;20063;-73
2023/04/07 00:16:55;;;;;;;14.07;8.65;;;;;;;4.44;75.81;100790.81;5029994;28;20040;-73
2023/04/07 00:19:21;;;;;;;18.75;9.63;;;;;;;4.14;77.26;100794.41;5028413;28;20087;-73
2023/04/07 00:21:46;;;;;;;20.05;9.85;;;;;;;4.04;78.26;100790.75;5028458;28;20029;-73
2023/04/07 00:24:11;;;;;;;13.98;8.38;;;;;;;3.98;78.86;100796.28;5029149;28;20517;-75
2023/04/07 00:26:37;;;;;;;13.63;8.68;;;;;;;3.88;79.38;100795.19;5032979;28;20040;-73
2023/04/07 00:29:02;;;;;;;13.75;8.75;;;;;;;3.77;80.05;100795.84;5029638;28;20036;-73
2023/04/07 00:31:28;;;;;;;14.82;9.07;;;;;;;3.67;81.41;100795.56;5028081;28;20051;-73
2023/04/07 00:33:54;;;;;;;15.50;8.07;;;;;;;3.58;80.94;100797.88;5026899;28;20033;-73
2023/04/07 00:36:20;;;;;;;13.50;9.43;;;;;;;3.44;82.15;100803.00;5026315;28;20487;-72
2023/04/07 00:38:45;;;;;;;13.88;9.20;;;;;;;3.50;81.90;100792.34;5026126;28;21117;-73
2023/04/07 00:41:10;;;;;;;19.08;9.73;;;;;;;3.51;82.19;100784.53;5028813;28;20044;-73
2023/04/07 00:43:36;;;;;;;17.40;9.65;;;;;;;3.47;82.60;100793.34;5026672;28;20080;-74
2023/04/07 00:46:01;;;;;;;20.13;9.02;;;;;;;3.54;81.71;100781.78;5036189;28;20470;-74
2023/04/07 00:48:27;;;;;;;15.55;8.27;;;;;;;3.67;81.10;100780.13;5031029;28;20029;-74
2023/04/07 00:50:53;;;;;;;16.50;8.52;;;;;;;3.91;78.69;100787.25;5032426;28;20045;-74
2023/04/07 00:53:19;;;;;;;13.52;7.82;;;;;;;4.22;76.74;100788.78;5030421;28;20056;-74
2023/04/07 00:55:44;;;;;;;17.77;7.93;;;;;;;4.37;75.07;100790.38;5034036;28;20494;-74
2023/04/07 00:58:10;;;;;;;16.40;7.28;;;;;;;4.47;74.47;100796.63;5037976;28;20037;-74
2023/04/07 01:00:47;;;;;;;13.77;7.63;;;;;;;4.48;74.17;100792.28;5030246;28;20041;-75
2023/04/07 01:03:18;;;;;;;14.80;6.93;;;;;;;4.28;75.41;100794.34;5028653;28;20033;-75
2023/04/07 01:05:53;;;;;;;13.43;7.70;;;;;;;4.12;75.95;100796.25;5028934;28;20169;-74
2023/04/07 01:08:41;;;;;;;14.70;7.77;;;;;;;4.00;76.78;100789.28;5033175;28;20086;-74
2023/04/07 01:11:16;;;;;;;12.20;7.32;;;;;;;4.15;75.52;100796.06;5029076;28;20044;-73
2023/04/07 01:13:53;;;;;;;14.45;7.15;;;;;;;4.16;75.26;100796.91;5027977;28;20040;-74
2023/04/07 01:16:31;;;;;;;11.85;6.85;;;;;;;4.12;75.52;100796.25;5030401;28;20029;-74
2023/04/07 01:19:03;;;;;;;13.68;7.65;;;;;;;3.92;77.93;100794.06;5033680;28;20107;-74
2023/04/07 01:21:34;;;;;;;17.05;7.93;;;;;;;3.69;79.90;100804.97;5032471;28;20387;-75
2023/04/07 01:24:22;;;;;;;13.07;7.75;;;;;;;3.39;82.08;100800.69;5028345;28;20040;-74
2023/04/07 01:26:49;;;;;;;11.65;7.65;;;;;;;3.28;82.48;100797.97;5027376;28;20029;-75
2023/04/07 01:29:33;;;;;;;13.10;8.00;;;;;;;3.24;83.91;100799.88;5029909;28;20044;-74
2023/04/07 01:32:01;;;;;;;21.52;8.77;;;;;;;3.21;83.42;100794.91;5024376;28;21600;-74
2023/04/07 01:34:29;;;;;;;17.67;8.70;;;;;;;3.15;83.99;100795.25;5034314;28;20440;-75
2023/04/07 01:36:57;;;;;;;12.95;7.43;;;;;;;3.00;84.34;100789.25;5034061;28;20045;-74
2023/04/07 01:39:24;;;;;;;12.18;7.45;;;;;;;2.93;85.33;100785.38;5034292;28;20036;-74
2023/04/07 01:41:51;;;;;;;12.10;7.45;;;;;;;3.23;83.23;100781.94;5031567;28;20410;-74
2023/04/07 01:44:18;;;;;;;11.25;6.72;;;;;;;3.49;81.05;100777.81;5036710;28;20382;-74
2023/04/07 01:46:44;;;;;;;12.88;7.68;;;;;;;3.71;78.42;100770.47;5037157;28;20041;-75
2023/04/07 01:49:11;;;;;;;10.55;6.60;;;;;;;3.86;77.25;100766.91;5032973;28;20056;-75
2023/04/07 01:51:37;;;;;;;12.50;6.50;;;;;;;3.97;76.50;100774.00;5031997;28;20459;-74
2023/04/07 01:54:04;;;;;;;10.27;6.60;;;;;;;4.06;75.63;100776.00;5034273;28;20116;-73
2023/04/07 01:56:29;;;;;;;12.15;6.75;;;;;;;4.18;74.77;100771.84;5034876;28;20490;-76
2023/04/07 01:58:55;;;;;;;12.20;7.30;;;;;;;4.18;75.51;100769.25;5032193;28;20061;-74
2023/04/07 02:01:20;;;;;;;14.65;8.23;;;;;;;3.99;76.76;100777.31;5028589;28;20029;-74
2023/04/07 02:03:53;;;;;;;12.15;8.00;;;;;;;3.97;76.47;100776.56;5031622;28;20057;-75
2023/04/07 02:06:25;;;;;;;14.35;8.52;;;;;;;3.76;77.32;100785.63;5032931;28;20044;-75
2023/04/07 02:08:55;;;;;;;17.67;8.65;;;;;;;3.71;77.46;100774.78;5032228;28;20099;-75
2023/04/07 02:11:22;;;;;;;13.02;8.13;;;;;;;3.69;77.73;100781.78;5031077;28;20384;-74
2023/04/07 02:13:48;;;;;;;16.65;8.00;;;;;;;3.64;77.94;100777.72;5031185;28;20061;-74
2023/04/07 02:16:15;;;;;;;16.73;8.43;;;;;;;3.84;76.48;100776.50;5029503;28;20099;-75
2023/04/07 02:18:43;;;;;;;17.90;9.20;;;;;;;3.82;76.48;100762.03;5024413;28;20021;-74
2023/04/07 02:21:11;;;;;;;12.20;8.00;;;;;;;3.90;75.36;100772.72;5030732;28;20033;-75
2023/04/07 02:23:36;;;;;;;15.35;7.78;;;;;;;4.06;73.52;100775.19;5029709;28;20585;-73
2023/04/07 02:26:02;;;;;;;14.07;7.93;;;;;;;4.14;73.38;100760.88;5031900;28;20084;-74
2023/04/07 02:28:27;;;;;;;14.43;7.82;;;;;;;4.10;73.47;100761.19;5031002;28;20100;-73
2023/04/07 02:30:52;;;;;;;11.50;7.45;;;;;;;4.07;74.20;100762.19;5030722;28;20033;-75
2023/04/07 02:33:18;;;;;;;11.82;7.70;;;;;;;3.97;74.46;100767.09;5026717;28;20042;-75
2023/04/07 02:35:43;;;;;;;13.80;7.22;;;;;;;3.92;75.18;100763.13;5025531;28;20431;-74
2023/04/07 02:38:09;;;;;;;12.27;6.50;;;;;;;3.88;74.59;100752.19;5028263;28;20041;-75
2023/04/07 02:40:35;;;;;;;11.93;7.40;;;;;;;3.89;74.70;100758.16;5020468;28;20036;-74
2023/04/07 02:43:01;;;;;;;12.50;7.40;;;;;;;3.88;74.39;100754.75;5029770;28;20449;-74
2023/04/07 02:45:26;;;;;;;13.68;7.07;;;;;;;3.88;74.38;100749.59;5033209;28;21725;-74
2023/04/07 02:47:51;;;;;;;11.13;6.82;;;;;;;3.86;74.64;100750.63;5028038;28;20029;-74
2023/04/07 02:50:17;;;;;;;12.23;6.68;;;;;;;3.79;75.55;100749.34;5030265;28;20047;-73
2023/04/07 02:52:42;;;;;;;8.63;6.72;;;;;;;3.70;76.37;100742.19;5026283;28;20033;-73
2023/04/07 02:55:08;;;;;;;12.23;6.57;;;;;;;3.63;76.53;100742.56;5028505;28;20048;-74
2023/04/07 02:57:33;;;;;;;14.27;7.45;;;;;;;3.60;76.50;100745.34;5032287;28;20478;-74
2023/04/07 02:59:59;;;;;;;12.70;7.40;;;;;;;3.61;76.51;100734.09;5034673;28;20045;-74
2023/04/07 03:02:25;;;;;;;12.60;7.15;;;;;;;3.63;76.40;100737.41;5033819;28;20045;-74
2023/04/07 03:04:54;;;;;;;10.13;7.05;;;;;;;3.64;76.37;100738.25;5038708;28;20084;-74
2023/04/07 03:07:20;;;;;;;10.90;7.22;;;;;;;3.67;75.74;100733.72;5026169;28;20055;-73
2023/04/07 03:09:45;;;;;;;14.77;6.97;;;;;;;3.70;75.54;100737.03;5031058;28;20458;-74
2023/04/07 03:12:11;;;;;;;15.15;8.20;;;;;;;3.72;75.51;100730.06;5026945;28;20037;-74
2023/04/07 03:14:36;;;;;;;14.57;8.07;;;;;;;3.78;74.81;100735.63;5030844;28;20091;-73
2023/04/07 03:17:02;;;;;;;13.85;8.02;;;;;;;3.63;75.58;100731.44;5031554;28;20124;-74
2023/04/07 03:19:28;;;;;;;15.98;9.20;;;;;;;3.32;77.57;100733.28;5033190;28;20031;-75
2023/04/07 03:21:53;;;;;;;11.90;7.53;;;;;;;3.14;78.88;100736.13;5028729;28;20033;-75
2023/04/07 03:24:19;;;;;;;16.70;9.20;;;;;;;2.96;80.15;100731.13;5033637;28;20037;-74
2023/04/07 03:26:44;;;;;;;17.05;8.82;;;;;;;2.82;80.85;100738.03;5031793;28;20095;-75
2023/04/07 03:29:09;;;;;;;13.70;9.20;;;;;;;2.80;80.77;100735.53;5032468;28;20029;-75
2023/04/07 03:31:36;;;;;;;16.60;9.70;;;;;;;2.84;80.61;100731.00;5027926;28;20033;-74
2023/04/07 03:34:02;;;;;;;18.42;10.15;;;;;;;2.96;80.00;100735.44;5032046;28;20525;-75
2023/04/07 03:36:27;;;;;;;14.55;9.32;;;;;;;3.02;79.52;100729.94;5028230;28;20034;-74
2023/04/07 03:38:53;;;;;;;13.70;8.43;;;;;;;3.17;78.70;100738.53;5027221;28;20028;-75
2023/04/07 03:41:18;;;;;;;13.77;8.07;;;;;;;3.25;77.80;100736.34;5030532;28;20035;-75
2023/04/07 03:43:44;;;;;;;12.13;7.68;;;;;;;3.30;77.18;100745.44;5030746;28;20033;-74
2023/04/07 03:46:09;;;;;;;13.73;7.63;;;;;;;3.37;76.98;100750.19;5030646;28;20033;-75
2023/04/07 03:48:35;;;;;;;11.70;7.05;;;;;;;3.37;76.90;100745.88;5027536;28;20098;-73
2023/04/07 03:51:00;;;;;;;13.07;7.72;;;;;;;3.40;76.59;100750.84;5021554;28;20060;-75
2023/04/07 03:53:26;;;;;;;12.00;7.55;;;;;;;3.47;75.72;100747.00;5023835;28;20144;-75
2023/04/07 03:55:51;;;;;;;13.18;7.53;;;;;;;3.52;75.98;100744.13;5027764;28;20040;-75
2023/04/07 03:58:17;;;;;;;12.00;7.18;;;;;;;3.47;76.13;100744.41;5030326;28;20068;-75
2023/04/07 04:00:42;;;;;;;10.80;7.25;;;;;;;3.39;76.96;100746.63;5028258;28;20025;-74
2023/04/07 04:03:08;;;;;;;11.48;6.82;;;;;;;3.29;77.76;100753.25;5035243;28;20052;-75
2023/04/07 04:05:34;;;;;;;13.73;7.57;;;;;;;3.12;79.46;100751.66;5029042;28;20053;-75
2023/04/07 04:07:59;;;;;;;12.02;7.35;;;;;;;3.08;80.03;100754.50;5030761;28;20462;-75
2023/04/07 04:10:25;;;;;;;14.15;8.05;;;;;;;3.06;80.04;100751.19;5026556;28;20037;-75
2023/04/07 04:12:50;;;;;;;16.42;8.18;;;;;;;3.10;80.22;100755.25;5028521;28;20477;-75
2023/04/07 04:15:16;;;;;;;11.88;7.22;;;;;;;3.10;80.01;100758.66;5027353;28;20040;-75
2023/04/07 04:17:41;;;;;;;14.35;7.88;;;;;;;3.17;79.33;100753.97;5034802;28;20049;-75
2023/04/07 04:20:07;;;;;;;13.45;7.70;;;;;;;3.19;78.98;100760.69;5032434;28;20043;-75
2023/04/07 04:22:33;;;;;;;13.90;7.80;;;;;;;3.15;79.49;100760.97;5032858;28;20029;-75
2023/04/07 04:24:59;;;;;;;10.85;7.22;;;;;;;2.99;80.29;100763.59;5029061;28;20119;-75
2023/04/07 04:27:25;;;;;;;15.52;8.00;;;;;;;2.97;80.75;100763.69;5028752;28;20140;-75
2023/04/07 04:29:50;;;;;;;12.63;7.68;;;;;;;2.99;80.73;100758.44;5029820;28;20115;-74
2023/04/07 04:32:16;;;;;;;12.10;6.82;;;;;;;3.00;80.57;100766.06;5027225;28;20033;-74
2023/04/07 04:34:42;;;;;;;9.73;6.38;;;;;;;3.07;79.90;100763.97;5029473;28;20124;-74
2023/04/07 04:37:08;;;;;;;10.30;6.05;;;;;;;3.10;79.43;100765.53;5028254;28;20116;-74
2023/04/07 04:39:33;;;;;;;14.38;8.32;;;;;;;3.07;79.77;100769.13;5026177;28;20033;-75
2023/04/07 04:42:00;;;;;;;15.25;8.23;;;;;;;3.04;80.14;100764.16;5028742;28;20493;-74
2023/04/07 04:44:25;;;;;;;18.17;9.10;;;;;;;3.03;80.06;100777.13;5026757;28;20132;-74
2023/04/07 04:46:51;;;;;;;16.45;8.65;;;;;;;3.02;80.09;100780.59;5030187;28;20113;-75
2023/04/07 04:49:17;;;;;;;17.55;9.18;;;;;;;3.01;80.40;100774.63;5024420;28;20040;-74
2023/04/07 04:51:43;;;;;;;12.52;8.18;;;;;;;3.00;80.41;100767.81;5027308;28;20487;-74
2023/04/07 04:54:08;;;;;;;10.90;7.30;;;;;;;2.99;80.13;100771.31;5030440;28;20119;-74
2023/04/07 04:56:34;;;;;;;13.68;8.05;;;;;;;3.05;79.67;100764.97;5028362;28;20116;-75
2023/04/07 04:58:59;;;;;;;14.48;6.55;;;;;;;3.10;79.73;100757.81;5028130;28;20051;-74
2023/04/07 05:01:24;;;;;;;11.70;7.85;;;;;;;3.10;79.15;100768.13;5020770;28;20033;-75
2023/04/07 05:03:50;;;;;;;13.32;7.93;;;;;;;3.14;78.89;100760.13;5024697;28;20090;-74
2023/04/07 05:06:15;;;;;;;16.05;7.82;;;;;;;3.19;78.61;100765.00;5023586;28;20087;-75
2023/04/07 05:08:41;;;;;;;13.15;8.25;;;;;;;3.14;78.55;100767.84;5028152;28;20032;-74
2023/04/07 05:11:06;;;;;;;13.18;7.60;;;;;;;3.11;79.00;100769.78;5027725;28;20033;-75
2023/04/07 05:13:32;;;;;;;14.15;7.38;;;;;;;3.16;78.31;100770.34;5029349;28;20025;-75
2023/04/07 05:15:57;;;;;;;14.45;7.53;;;;;;;3.26;78.11;100767.16;5025926;28;20060;-74
2023/04/07 05:18:23;;;;;;;13.88;6.72;;;;;;;3.32;77.37;100768.50;5028740;28;20044;-73
2023/04/07 05:20:48;;;;;;;14.63;8.27;;;;;;;3.32;77.59;100768.50;5034810;28;20025;-75
2023/04/07 05:23:14;;;;;;;16.20;7.18;;;;;;;3.34;78.02;100764.91;5031849;28;20024;-74
2023/04/07 05:25:40;;;;;;;13.68;7.80;;;;;;;3.39;77.04;100766.38;5030509;28;20044;-73
2023/04/07 05:28:05;;;;;;;15.82;8.90;;;;;;;3.47;76.68;100771.91;5027192;28;20037;-73
2023/04/07 05:30:31;;;;;;;14.00;8.07;;;;;;;3.52;76.30;100778.47;5028295;28;20021;-73
2023/04/07 05:32:56;;;;;;;11.40;7.15;;;;;;;3.50;77.16;100780.28;5031151;28;20498;-73
2023/04/07 05:35:21;;;;;;;13.50;7.28;;;;;;;3.49;77.48;100776.06;5028874;28;20106;-73
2023/04/07 05:37:47;;;;;;;14.77;7.30;;;;;;;3.55;77.16;100780.84;5030392;28;20026;-73
2023/04/07 05:40:12;;;;;;;13.70;7.20;;;;;;;3.61;76.73;100779.66;5025328;28;20033;-73
2023/04/07 05:42:38;;;;;;;12.98;7.35;;;;;;;3.64;76.70;100780.31;5031119;28;20033;-73
2023/04/07 05:45:04;;;;;;;17.02;7.97;;;;;;;3.67;76.98;100769.81;5032272;28;20034;-73
2023/04/07 05:47:29;;;;;;;13.40;7.57;;;;;;;3.67;76.41;100769.81;5032445;28;20033;-73
2023/04/07 05:49:55;;;;;;;16.95;7.50;;;;;;;3.70;76.37;100768.78;5030014;28;20040;-73
2023/04/07 05:52:20;;;;;;;16.40;7.78;;;;;;;3.71;77.01;100770.47;5033532;28;20036;-73
2023/04/07 05:54:46;;;;;;;18.63;7.93;;;;;;;3.78;76.90;100766.56;5034603;28;20478;-73
2023/04/07 05:57:12;;;;;;;16.08;7.72;;;;;;;3.85;76.37;100773.00;5031323;28;20048;-72
2023/04/07 05:59:37;;;;;;;17.90;8.27;;;;;;;3.95;76.32;100768.09;5025569;28;20048;-73
2023/04/07 06:02:03;;;;;;;11.15;7.47;;;;;;;4.08;75.48;100763.03;5026908;28;20126;-73
2023/04/07 06:04:29;;;;;;;13.95;7.68;;;;;;;4.18;75.18;100764.09;5024058;28;20395;-73
2023/04/07 06:06:54;;;;;;;18.15;8.60;;;;;;;4.25;74.15;100771.34;5030930;28;20111;-73
2023/04/07 06:09:21;;;;;;;14.05;8.38;;;;;;;4.34;74.24;100773.34;5030652;28;20045;-72
2023/04/07 06:11:47;;;;;;;14.32;8.73;;;;;;;4.49;73.64;100770.72;5037649;28;20056;-73
2023/04/07 06:14:12;;;;;;;20.10;9.30;;;;;;;4.61;73.45;100775.09;5032513;28;20505;-73
2023/04/07 06:16:38;;;;;;;15.50;9.23;;;;;;;4.69;73.41;100778.00;5025847;28;20036;-73
2023/04/07 06:19:03;;;;;;;13.02;7.10;;;;;;;4.66;72.58;100771.28;5028100;28;20037;-72
2023/04/07 06:21:29;;;;;;;13.07;6.80;;;;;;;4.74;72.43;100773.34;5031948;28;20044;-73
2023/04/07 06:23:55;;;;;;;18.10;9.35;;;;;;;4.96;72.01;100777.94;5023918;28;20033;-73
2023/04/07 06:26:20;;;;;;;16.67;10.52;;;;;;;5.26;72.00;100781.06;5020419;28;20764;-73
2023/04/07 06:28:46;;;;;;;21.08;9.52;;;;;;;5.43;71.38;100781.69;5032033;28;20108;-74
2023/04/07 06:31:11;;;;;;;14.13;9.88;;;;;;;5.64;70.31;100775.91;5029429;28;20049;-73
2023/04/07 06:33:37;;;;;;;17.15;8.95;;;;;;;5.73;69.59;100777.00;5031450;28;20021;-72
2023/04/07 06:36:02;;;;;;;14.07;8.90;;;;;;;5.83;68.85;100777.19;5029711;28;20064;-73
2023/04/07 06:38:27;;;;;;;11.95;8.13;;;;;;;5.93;68.96;100770.50;5026275;28;20120;-73
2023/04/07 06:40:53;;;;;;;12.27;7.97;;;;;;;6.05;67.69;100768.81;5030456;28;20127;-73
2023/04/07 06:43:18;;;;;;;13.18;7.80;;;;;;;6.21;66.75;100769.34;5033461;28;20446;-73
2023/04/07 06:45:44;;;;;;;13.02;7.78;;;;;;;6.31;66.53;100765.19;5032487;28;20034;-73
2023/04/07 06:48:09;;;;;;;13.20;7.57;;;;;;;6.44;65.88;100765.97;5028962;28;20034;-72
2023/04/07 06:50:36;;;;;;;12.57;7.30;;;;;;;6.46;65.79;100764.09;5023664;28;20064;-73
2023/04/07 06:53:02;;;;;;;11.48;7.50;;;;;;;6.59;65.14;100769.22;5030112;28;20156;-73
2023/04/07 06:55:27;;;;;;;15.82;8.10;;;;;;;6.82;65.52;100760.56;5028482;28;20144;-73
2023/04/07 06:57:53;;;;;;;14.50;8.25;;;;;;;7.04;64.22;100769.34;5026987;28;20048;-73
2023/04/07 07:00:18;;;;;;;16.83;7.72;;;;;;;7.12;64.13;100760.03;5028277;28;20096;-73
2023/04/07 07:02:44;;;;;;;12.90;8.80;;;;;;;7.14;63.24;100765.09;5034350;28;20041;-73
2023/04/07 07:05:10;;;;;;;15.88;7.40;;;;;;;7.19;63.22;100758.63;5034253;28;20155;-73
2023/04/07 07:07:36;;;;;;;16.67;8.98;;;;;;;7.44;62.88;100762.78;5025359;28;20034;-73
2023/04/07 07:10:02;;;;;;;15.98;8.27;;;;;;;7.66;62.66;100767.13;5026601;28;20043;-74
2023/04/07 07:12:27;;;;;;;12.63;7.25;;;;;;;7.80;62.30;100758.31;5022011;28;20166;-73
2023/04/07 07:14:52;;;;;;;13.05;7.43;;;;;;;8.09;61.77;100762.00;5028189;28;20459;-73
2023/04/07 07:17:18;;;;;;;14.80;7.47;;;;;;;8.21;60.68;100763.63;5023246;28;20029;-73
2023/04/07 07:19:43;;;;;;;12.38;7.50;;;;;;;8.50;60.05;100755.34;5029798;28;20298;-73
2023/04/07 07:22:09;;;;;;;12.27;6.80;;;;;;;8.70;58.83;100762.31;5019391;28;20040;-73
2023/04/07 07:24:35;;;;;;;15.27;7.80;;;;;;;9.03;58.68;100763.06;5028440;28;20026;-73
2023/04/07 07:27:01;;;;;;;11.40;6.82;;;;;;;9.38;58.54;100758.38;5023413;28;20502;-73
2023/04/07 07:29:26;;;;;;;11.93;7.30;;;;;;;9.49;57.11;100754.84;5031839;28;20139;-73
2023/04/07 07:31:52;;;;;;;12.38;7.78;;;;;;;9.29;57.47;100757.34;5031421;28;20506;-73
2023/04/07 07:34:17;;;;;;;13.20;7.38;;;;;;;9.60;57.86;100755.56;5024703;28;20220;-73
2023/04/07 07:36:42;;;;;;;14.95;7.70;;;;;;;10.18;55.86;100750.53;5024380;28;20037;-73
2023/04/07 07:39:08;;;;;;;13.20;7.72;;;;;;;10.24;55.11;100754.41;5028121;28;20029;-73
2023/04/07 07:41:33;;;;;;;15.90;8.40;;;;;;;11.35;53.20;100749.44;5024991;28;20086;-74
2023/04/07 07:43:59;;;;;;;10.48;6.68;;;;;;;12.29;50.62;100748.28;5025652;28;20033;-72
2023/04/07 07:46:26;;;;;;;12.60;6.97;;;;;;;12.80;49.12;100757.22;5016872;28;21288;-73
2023/04/07 07:48:51;;;;;;;11.70;7.35;;;;;;;12.81;48.66;100752.81;5022624;28;20041;-73
2023/04/07 07:51:17;;;;;;;12.45;7.78;;;;;;;12.54;48.40;100745.91;5027380;28;20030;-73
2023/04/07 07:53:45;;;;;;;12.25;7.22;;;;;;;12.98;48.02;100751.97;5028802;28;20079;-72
2023/04/07 07:56:11;;;;;;;13.35;7.00;;;;;;;13.89;46.34;100744.44;5028255;28;20048;-73
2023/04/07 07:58:36;;;;;;;15.38;7.75;;;;;;;13.86;46.47;100750.81;5036116;28;20016;-73
2023/04/07 08:01:02;;;;;;;16.45;7.45;;;;;;;13.52;47.93;100748.22;5021152;28;20026;-73
2023/04/07 08:03:27;;;;;;;17.55;7.25;;;;;;;13.25;47.86;100745.78;5032328;28;20029;-73
2023/04/07 08:05:53;;;;;;;17.23;7.80;;;;;;;13.37;48.96;100747.16;5033882;28;20050;-72
2023/04/07 08:08:18;;;;;;;13.27;7.40;;;;;;;13.29;50.02;100745.31;5026160;28;20022;-73
2023/04/07 08:10:43;;;;;;;18.42;7.20;;;;;;;13.27;50.70;100742.03;5024944;28;20479;-73
2023/04/07 08:13:09;;;;;;;10.93;7.10;;;;;;;13.45;50.82;100735.91;5024806;28;20025;-73
2023/04/07 08:15:35;;;;;;;12.43;7.88;;;;;;;13.59;50.86;100728.28;5023385;28;20052;-72
2023/04/07 08:18:03;;;;;;;11.38;7.63;;;;;;;13.89;50.75;100741.81;5031589;28;20025;-73
2023/04/07 08:20:29;;;;;;;11.82;8.07;;;;;;;13.78;50.03;100736.84;5023354;28;20033;-72
2023/04/07 08:22:54;;;;;;;14.65;8.30;;;;;;;13.33;49.50;100735.34;5015693;28;20029;-73
2023/04/07 08:25:20;;;;;;;16.85;8.82;;;;;;;13.29;50.22;100734.03;5021104;28;20131;-73
2023/04/07 08:27:45;;;;;;;32.20;9.88;;;;;;;13.65;50.53;100737.31;5022230;28;20055;-73
2023/04/07 08:30:10;;;;;;;22.98;9.38;;;;;;;13.90;50.67;100725.94;5020779;28;20033;-72
2023/04/07 08:32:40;;;;;;;14.40;8.80;;;;;;;14.05;50.25;100722.69;5020611;28;20589;-73
2023/04/07 08:35:06;;;;;;;15.88;8.82;;;;;;;14.14;51.36;100724.38;5027151;28;20040;-72
2023/04/07 08:37:33;;;;;;;13.68;7.93;;;;;;;14.17;52.00;100717.00;5024274;28;20033;-72
2023/04/07 08:39:58;;;;;;;14.07;7.90;;;;;;;13.96;52.40;100719.25;5024039;28;20462;-73
2023/04/07 08:42:28;;;;;;;13.63;8.70;;;;;;;14.38;51.62;100713.06;5027473;28;20076;-72
2023/04/07 08:45:01;;;;;;;14.13;9.10;;;;;;;14.01;50.76;100710.91;5030616;28;20513;-73
2023/04/07 08:47:29;;;;;;;16.17;9.27;;;;;;;14.33;51.19;100710.13;5027087;28;20509;-71
2023/04/07 08:49:59;;;;;;;12.90;8.82;;;;;;;15.14;48.84;100710.88;5026652;28;20026;-72
2023/04/07 08:52:33;;;;;;;18.38;10.93;;;;;;;14.56;48.18;100711.97;5025360;28;20041;-72
2023/04/07 08:55:01;;;;;;;19.45;10.85;;;;;;;14.80;48.29;100710.28;5026562;28;20029;-72
2023/04/07 08:57:30;;;;;;;15.23;9.77;;;;;;;14.73;48.24;100702.28;5023104;28;20449;-73
2023/04/07 08:59:57;;;;;;;17.00;10.73;;;;;;;14.98;49.27;100699.63;5028009;28;20483;-73
2023/04/07 09:02:22;;;;;;;16.80;10.55;;;;;;;14.60;47.56;100697.56;5026752;28;20497;-73
2023/04/07 09:04:48;;;;;;;16.60;10.63;;;;;;;13.70;49.32;100694.97;5015318;28;20046;-73
2023/04/07 09:07:13;;;;;;;16.92;10.40;;;;;;;13.26;50.72;100702.94;5026279;28;20455;-73
2023/04/07 09:09:39;;;;;;;17.20;11.00;;;;;;;13.15;50.86;100697.97;5030283;28;20029;-72
2023/04/07 09:12:05;;;;;;;17.23;11.38;;;;;;;13.43;50.92;100701.22;5024514;28;20036;-72
2023/04/07 09:14:30;;;;;;;17.40;11.30;;;;;;;13.38;51.06;100703.50;5025592;28;20472;-72
2023/04/07 09:16:56;;;;;;;16.70;11.35;;;;;;;13.30;51.47;100699.03;5031526;28;20055;-73
2023/04/07 09:19:24;;;;;;;19.67;11.88;;;;;;;13.37;51.85;100696.63;5021636;28;20034;-73
2023/04/07 09:21:51;;;;;;;18.77;11.75;;;;;;;13.40;51.04;100691.06;5024016;28;20030;-72
2023/04/07 09:24:27;;;;;;;15.65;12.20;;;;;;;13.12;50.49;100693.88;5032565;28;20622;-72
2023/04/07 09:27:10;;;;;;;17.15;11.38;;;;;;;12.91;51.44;100689.00;5029640;28;20074;-71
2023/04/07 09:29:36;;;;;;;18.00;11.80;;;;;;;12.83;51.50;100678.47;5024104;28;20107;-72
2023/04/07 09:32:02;;;;;;;17.13;11.48;;;;;;;12.92;51.77;100688.00;5033758;28;20033;-71
2023/04/07 09:34:35;;;;;;;17.05;12.10;;;;;;;12.98;51.05;100681.34;5034059;28;20451;-69
2023/04/07 09:37:01;;;;;;;19.33;12.82;;;;;;;12.81;51.21;100676.97;5033180;28;20037;-69
2023/04/07 09:39:27;;;;;;;20.98;13.88;;;;;;;12.18;50.02;100674.56;5023422;28;20037;-69
2023/04/07 09:41:53;;;;;;;19.00;11.95;;;;;;;11.96;51.31;100673.22;5040581;28;20029;-69
2023/04/07 09:44:19;;;;;;;21.23;13.55;;;;;;;12.14;50.89;100671.44;5037850;28;20036;-69
2023/04/07 09:46:55;;;;;;;20.10;11.70;;;;;;;12.23;51.40;100670.53;5025465;28;20037;-69
2023/04/07 09:49:22;;;;;;;21.38;13.23;;;;;;;12.34;51.06;100669.47;5030241;28;20037;-69
2023/04/07 09:52:06;;;;;;;18.35;11.50;;;;;;;12.43;51.07;100659.91;5023508;28;20472;-69
2023/04/07 09:54:39;;;;;;;17.20;12.30;;;;;;;12.43;51.63;100667.75;5022957;28;20068;-69
2023/04/07 09:57:09;;;;;;;18.50;11.50;;;;;;;12.52;51.01;100662.44;5017373;28;20038;-70
2023/04/07 09:59:37;;;;;;;18.92;11.82;;;;;;;12.29;50.41;100659.47;5023121;28;20043;-70
2023/04/07 10:02:04;;;;;;;20.67;12.05;;;;;;;12.21;50.20;100655.97;5027479;28;20379;-69
2023/04/07 10:04:29;;;;;;;18.05;10.88;;;;;;;12.34;49.69;100645.13;5030867;28;20456;-69
2023/04/07 10:06:57;;;;;;;24.05;11.75;;;;;;;12.50;49.29;100650.47;5031670;28;20052;-69
2023/04/07 10:09:25;;;;;;;19.85;11.05;;;;;;;12.67;49.81;100647.03;5031305;28;20033;-70
2023/04/07 10:11:52;;;;;;;20.90;11.57;;;;;;;12.75;49.33;100646.25;5025624;28;20450;-70
2023/04/07 10:14:19;;;;;;;18.35;12.73;;;;;;;12.76;49.41;100640.84;5038753;28;20037;-69
2023/04/07 10:16:47;;;;;;;15.63;11.15;;;;;;;12.76;49.15;100646.06;5030262;28;20128;-69
2023/04/07 10:19:13;;;;;;;21.63;12.77;;;;;;;12.71;48.43;100624.81;5027290;28;20033;-69
2023/04/07 10:21:44;;;;;;;18.27;11.95;;;;;;;12.65;48.52;100625.44;5028449;28;20044;-69
2023/04/07 10:24:31;;;;;;;17.67;12.18;;;;;;;12.92;47.24;100627.88;5022603;28;20499;-69
2023/04/07 10:27:02;;;;;;;17.85;11.40;;;;;;;12.77;47.33;100626.78;5022749;28;20034;-69
2023/04/07 10:29:33;;;;;;;18.85;11.95;;;;;;;12.75;47.35;100620.09;5028107;28;20026;-70
2023/04/07 10:32:00;;;;;;;14.48;10.85;;;;;;;12.79;47.52;100619.63;5025117;28;20513;-70
2023/04/07 10:34:52;;;;;;;18.10;12.13;;;;;;;13.01;46.67;100617.44;5026349;28;20098;-71
2023/04/07 10:37:20;;;;;;;16.38;11.52;;;;;;;13.26;47.38;100613.97;5025311;28;20444;-71
2023/04/07 10:39:45;;;;;;;17.58;11.18;;;;;;;13.37;47.56;100607.63;5031443;28;20468;-71
2023/04/07 10:42:36;;;;;;;16.05;11.23;;;;;;;13.41;46.86;100609.78;5024780;28;20040;-71
2023/04/07 10:45:02;;;;;;;17.42;11.45;;;;;;;13.38;47.49;100610.09;5032136;28;20029;-71
2023/04/07 10:47:28;;;;;;;14.68;10.27;;;;;;;13.34;47.50;100603.53;5033599;28;20080;-71
2023/04/07 10:50:11;;;;;;;13.65;10.75;;;;;;;13.27;46.43;100607.75;5031738;28;20057;-70
2023/04/07 10:52:37;;;;;;;17.95;12.00;;;;;;;13.15;47.92;100599.38;5022584;28;20037;-70
2023/04/07 10:55:29;;;;;;;15.43;11.23;;;;;;;13.10;47.18;100600.81;5031360;28;20052;-71
2023/04/07 10:58:25;;;;;;;18.88;11.65;;;;;;;13.13;48.14;100596.09;5029494;28;20048;-70
2023/04/07 11:01:12;;;;;;;13.15;10.70;;;;;;;13.15;46.93;100598.56;5022973;28;20515;-71
2023/04/07 11:03:41;;;;;;;16.88;11.50;;;;;;;13.19;47.98;100602.53;5029488;28;20434;-71
2023/04/07 11:06:08;;;;;;;19.27;12.05;;;;;;;13.22;48.59;100597.81;5024515;28;20374;-71
2023/04/07 11:08:38;;;;;;;18.27;10.82;;;;;;;13.26;48.98;100596.47;5032236;28;20116;-71
2023/04/07 11:11:09;;;;;;;14.43;10.10;;;;;;;13.30;49.43;100599.59;5028381;28;20068;-71
2023/04/07 11:13:47;;;;;;;15.60;9.75;;;;;;;13.26;49.51;100595.66;5030235;28;20057;-70
2023/04/07 11:16:15;;;;;;;18.17;10.70;;;;;;;13.22;50.23;100591.75;5029252;28;20386;-70
2023/04/07 11:18:41;;;;;;;13.98;10.95;;;;;;;13.26;50.71;100595.66;5014589;28;20026;-70
2023/04/07 11:21:07;;;;;;;17.13;10.02;;;;;;;13.31;50.86;100595.19;5030647;28;20380;-70
2023/04/07 11:23:40;;;;;;;17.30;9.60;;;;;;;13.38;51.38;100597.00;5024362;28;20033;-72